Aikou Maru — JD3395 — position and weather

sailwx.info

Track history (hours):
 
Tides and Currents Weather Stations Pressure Air Temp Water Temp Dewpoint Dewpoint Depression Visibility Wind Speed Wind Dir Waves Ship Positions

Aikou Maru

Last reported at 2018-Jun-19 06:16 UTC. Time now 2018-Jun-20 07:24 UTC.
Position N 35°31' E 139°55'.

Length 89 m; draft 5.6 m.

Type: Tanker. MMSI: 431003751.

Date/timePositionNaut miles runAvg speedWind from/ knotsBaromVisibWave heightAir tempDewpointWater temp
2018-Jun-19 06:16N 35°31' E 139°55'412.9
2018-Jun-19 05:58N 35°28' E 139°51'612.8
2018-Jun-19 05:30N 35°25' E 139°45'4 8.6
2018-Jun-19 05:00N 35°24' E 139°40'0 0.8
2018-Jun-19 04:31N 35°25' E 139°39'0 0.0
2018-Jun-19 04:00N 35°25' E 139°39'0 0.0
2018-Jun-19 03:30N 35°25' E 139°39'0 0.0
2018-Jun-19 02:58N 35°25' E 139°39'0 0.0
2018-Jun-19 02:30N 35°25' E 139°39'0 0.0
2018-Jun-19 02:01N 35°25' E 139°39'0 0.0
2018-Jun-19 01:30N 35°25' E 139°39'0 0.0
2018-Jun-19 01:00N 35°25' E 139°39'0 0.0
2018-Jun-19 00:30N 35°25' E 139°39'0 0.0
2018-Jun-19 00:00N 35°25' E 139°39'0 0.0
2018-Jun-18 23:30N 35°25' E 139°39'1 2.0
2018-Jun-18 23:01N 35°24' E 139°40'3 6.7
2018-Jun-18 22:31N 35°24' E 139°44'0 0.1
2018-Jun-18 22:00N 35°24' E 139°44'0 0.0
2018-Jun-18 21:30N 35°24' E 139°44'0 0.0
2018-Jun-18 21:01N 35°24' E 139°44'0 0.0
2018-Jun-18 20:30N 35°24' E 139°44'0 0.0
2018-Jun-18 20:01N 35°24' E 139°44'0 0.0
2018-Jun-18 19:30N 35°24' E 139°44'0 0.0
2018-Jun-18 19:01N 35°24' E 139°44'0 0.0
2018-Jun-18 18:30N 35°24' E 139°44'0 0.0
2018-Jun-18 18:00N 35°24' E 139°44'0 0.0
2018-Jun-18 17:31N 35°24' E 139°44'0 0.0
2018-Jun-18 17:00N 35°24' E 139°44'0 0.0
2018-Jun-18 16:30N 35°24' E 139°44'0 0.0
2018-Jun-18 16:01N 35°24' E 139°44'0 0.0
2018-Jun-18 15:31N 35°24' E 139°44'0 0.0
2018-Jun-18 15:01N 35°24' E 139°44'0 0.0
2018-Jun-18 14:31N 35°24' E 139°44'0 0.0
2018-Jun-18 14:01N 35°24' E 139°44'0 0.0
2018-Jun-18 13:31N 35°24' E 139°44'0 0.0
2018-Jun-18 13:01N 35°24' E 139°44'0 0.0
2018-Jun-18 12:30N 35°24' E 139°44'0 0.0
2018-Jun-18 12:00N 35°24' E 139°44'0 0.0
2018-Jun-18 11:30N 35°24' E 139°44'0 0.0
2018-Jun-18 11:00N 35°24' E 139°44'0 0.1
2018-Jun-18 10:30N 35°24' E 139°44'0 0.0
2018-Jun-18 10:00N 35°24' E 139°44'0 0.0
2018-Jun-18 09:29N 35°24' E 139°44'0 0.1
2018-Jun-18 09:01N 35°24' E 139°44'0 0.1
2018-Jun-18 08:30N 35°24' E 139°44'0 0.1
2018-Jun-18 08:00N 35°24' E 139°44'0 0.0
2018-Jun-18 07:30N 35°24' E 139°44'0 0.0
2018-Jun-18 07:00N 35°24' E 139°44'0 0.0
2018-Jun-18 06:30N 35°24' E 139°44'0 0.1
2018-Jun-18 06:01N 35°24' E 139°44'0 0.1
2018-Jun-18 05:30N 35°24' E 139°44'0 0.1
2018-Jun-18 05:00N 35°24' E 139°44'0 0.0
2018-Jun-18 04:31N 35°24' E 139°44'0 0.0
2018-Jun-18 04:01N 35°24' E 139°44'0 0.0
2018-Jun-18 03:30N 35°24' E 139°44'0 0.0
2018-Jun-18 03:01N 35°24' E 139°44'0 0.0
2018-Jun-18 02:30N 35°24' E 139°44'0 0.0
2018-Jun-18 02:00N 35°24' E 139°44'0 0.0
2018-Jun-18 01:30N 35°24' E 139°44'2 4.3
2018-Jun-18 01:00N 35°22' E 139°42'3 6.5
2018-Jun-18 00:30N 35°25' E 139°39'0 0.0
2018-Jun-18 00:00N 35°25' E 139°39'2 3.4
2018-Jun-17 23:30N 35°23' E 139°41'3 6.1
2018-Jun-17 23:00N 35°25' E 139°44'612.1
2018-Jun-17 22:30N 35°29' E 139°50'611.8
2018-Jun-17 22:00N 35°32' E 139°55'  
2018-Jun-15 06:16N 35°31' E 139°55'312.2
2018-Jun-15 06:01N 35°29' E 139°52'612.1
2018-Jun-15 05:30N 35°25' E 139°46'510.3
2018-Jun-15 05:00N 35°24' E 139°40'1 1.3
2018-Jun-15 04:29N 35°25' E 139°39'0 0.0
2018-Jun-15 04:01N 35°25' E 139°39'0 0.0
2018-Jun-15 03:29N 35°25' E 139°39'0 0.0
2018-Jun-15 03:01N 35°25' E 139°39'0 0.0
2018-Jun-15 02:30N 35°25' E 139°39'0 0.0
2018-Jun-15 02:01N 35°25' E 139°39'0 0.0
2018-Jun-15 01:29N 35°25' E 139°39'0 0.0
2018-Jun-15 01:00N 35°25' E 139°39'0 0.0
2018-Jun-15 00:30N 35°25' E 139°39'0 0.0
2018-Jun-15 00:01N 35°25' E 139°39'0 0.0
2018-Jun-14 23:30N 35°25' E 139°39'1 2.2
2018-Jun-14 23:00N 35°24' E 139°40'3 6.1
2018-Jun-14 22:29N 35°23' E 139°44'0 0.0
2018-Jun-14 21:59N 35°23' E 139°44'0 0.0
2018-Jun-14 21:29N 35°23' E 139°44'0 0.0
2018-Jun-14 20:59N 35°23' E 139°44'0 0.0
2018-Jun-14 20:29N 35°23' E 139°44'0 0.0
2018-Jun-14 19:59N 35°23' E 139°44'0 0.1
2018-Jun-14 19:29N 35°23' E 139°44'0 0.1
2018-Jun-14 18:53N 35°23' E 139°44'0 0.0
2018-Jun-14 18:29N 35°23' E 139°44'0 0.0
2018-Jun-14 17:59N 35°23' E 139°44'0 0.0
2018-Jun-14 17:29N 35°23' E 139°44'0 0.0
2018-Jun-14 16:59N 35°23' E 139°44'0 0.1
2018-Jun-14 16:26N 35°23' E 139°44'0 0.0
2018-Jun-14 15:56N 35°23' E 139°44'0 0.0
2018-Jun-14 15:29N 35°23' E 139°44'0 0.0
2018-Jun-14 14:59N 35°23' E 139°44'0 0.0
2018-Jun-14 14:29N 35°23' E 139°44'0 0.0
2018-Jun-14 13:59N 35°23' E 139°44'0 0.0
2018-Jun-14 13:29N 35°23' E 139°44'0 0.0
2018-Jun-14 12:59N 35°23' E 139°44'0 0.0
2018-Jun-14 12:29N 35°23' E 139°44'0 0.1
2018-Jun-14 11:59N 35°23' E 139°44'0 0.1
2018-Jun-14 11:29N 35°23' E 139°44'0 0.0
2018-Jun-14 10:59N 35°23' E 139°44'0 0.0
2018-Jun-14 10:26N 35°23' E 139°44'0 0.1
2018-Jun-14 09:59N 35°23' E 139°44'0 0.0
2018-Jun-14 09:29N 35°23' E 139°44'0 0.1
2018-Jun-14 09:00N 35°23' E 139°44'2 4.7
2018-Jun-14 08:29N 35°25' E 139°46'511.2
2018-Jun-14 08:00N 35°30' E 139°49'2 3.8
2018-Jun-14 07:29N 35°32' E 139°48'0 0.0
2018-Jun-14 07:00N 35°32' E 139°48'0 0.0
2018-Jun-14 06:30N 35°32' E 139°48'0 0.0
2018-Jun-14 06:00N 35°32' E 139°48'0 0.0
2018-Jun-14 05:30N 35°32' E 139°48'0 0.0
2018-Jun-14 05:00N 35°32' E 139°48'0 0.0
2018-Jun-14 04:30N 35°32' E 139°48'0 0.0
2018-Jun-14 04:00N 35°32' E 139°48'1 1.7
2018-Jun-14 03:30N 35°31' E 139°48'2 3.9
2018-Jun-14 03:00N 35°31' E 139°50'0 0.0
2018-Jun-14 02:00N 35°31' E 139°50'0 0.0
2018-Jun-14 00:29N 35°31' E 139°50'0 0.0
2018-Jun-14 00:00N 35°31' E 139°50'0 0.0
2018-Jun-13 23:30N 35°31' E 139°50'0 0.0
2018-Jun-13 23:00N 35°31' E 139°50'0 0.0
2018-Jun-13 22:30N 35°31' E 139°50'0 0.0
2018-Jun-13 21:59N 35°31' E 139°50'0 0.0
2018-Jun-13 21:27N 35°31' E 139°50'0 0.0
2018-Jun-13 21:00N 35°31' E 139°50'0 0.0
2018-Jun-13 20:30N 35°31' E 139°50'0 0.0
2018-Jun-13 20:00N 35°31' E 139°50'0 0.1
2018-Jun-13 18:29N 35°31' E 139°50'0 0.1
2018-Jun-13 18:00N 35°31' E 139°50'0 0.0
2018-Jun-13 17:30N 35°31' E 139°50'0 0.0
2018-Jun-13 16:59N 35°31' E 139°50'0 0.0
2018-Jun-13 16:30N 35°31' E 139°50'0 0.0
2018-Jun-13 16:00N 35°31' E 139°50'0 0.0
2018-Jun-13 15:30N 35°31' E 139°50'0 0.0
2018-Jun-13 15:00N 35°31' E 139°50'0 0.0
2018-Jun-13 14:30N 35°31' E 139°50'0 0.0
2018-Jun-13 13:50N 35°31' E 139°50'0 0.0
2018-Jun-13 13:24N 35°31' E 139°50'0 0.0
2018-Jun-13 13:00N 35°31' E 139°50'0 0.0
2018-Jun-13 12:25N 35°31' E 139°50'0 0.0
2018-Jun-13 12:00N 35°31' E 139°50'0 0.0
2018-Jun-13 11:29N 35°31' E 139°50'0 0.0
2018-Jun-13 11:00N 35°31' E 139°50'0 0.0
2018-Jun-13 10:30N 35°31' E 139°50'0 0.0
2018-Jun-13 09:56N 35°31' E 139°50'0 0.0
2018-Jun-13 09:30N 35°31' E 139°50'0 0.0
2018-Jun-13 09:00N 35°31' E 139°50'0 0.0
2018-Jun-13 08:30N 35°31' E 139°50'0 0.0
2018-Jun-13 08:00N 35°31' E 139°50'0 0.1
2018-Jun-13 07:30N 35°31' E 139°50'0 0.0
2018-Jun-13 07:00N 35°31' E 139°50'1 2.0
2018-Jun-13 06:30N 35°30' E 139°49'612.1
2018-Jun-13 06:00N 35°26' E 139°44'4 8.7
2018-Jun-13 05:30N 35°24' E 139°40'0 0.8
2018-Jun-13 05:00N 35°25' E 139°39'0 0.0
2018-Jun-13 04:30N 35°25' E 139°39'0 0.0
2018-Jun-13 04:00N 35°25' E 139°39'0 0.0
2018-Jun-13 03:29N 35°25' E 139°39'0 0.0
2018-Jun-13 03:00N 35°25' E 139°39'0 0.0
2018-Jun-13 02:30N 35°25' E 139°39'0 0.0
2018-Jun-13 02:00N 35°25' E 139°39'0 0.0
2018-Jun-13 01:30N 35°25' E 139°39'0 0.0
2018-Jun-13 01:00N 35°25' E 139°39'0 0.0
2018-Jun-13 00:30N 35°25' E 139°39'0 0.0
2018-Jun-13 00:00N 35°25' E 139°39'0 0.6
2018-Jun-12 23:30N 35°24' E 139°39'4 7.6
2018-Jun-12 23:00N 35°23' E 139°44'1 1.6
2018-Jun-12 22:30N 35°22' E 139°45'0 0.0
2018-Jun-12 21:58N 35°22' E 139°45'0 0.0
2018-Jun-12 21:28N 35°22' E 139°45'0 0.0
2018-Jun-12 20:58N 35°22' E 139°45'0 0.0
2018-Jun-12 20:28N 35°22' E 139°45'0 0.0
2018-Jun-12 19:58N 35°22' E 139°45'0 0.0
2018-Jun-12 19:28N 35°22' E 139°45'0 0.0
2018-Jun-12 18:58N 35°22' E 139°45'0 0.0
2018-Jun-12 18:28N 35°22' E 139°45'0 0.0
2018-Jun-12 17:58N 35°22' E 139°45'0 0.0
2018-Jun-12 17:28N 35°22' E 139°45'0 0.0
2018-Jun-12 16:58N 35°22' E 139°45'0 0.0
2018-Jun-12 16:28N 35°22' E 139°45'0 0.0
2018-Jun-12 15:58N 35°22' E 139°45'0 0.0
2018-Jun-12 15:28N 35°22' E 139°45'0 0.0
2018-Jun-12 14:58N 35°22' E 139°45'0 0.0
2018-Jun-12 14:25N 35°22' E 139°45'0 0.0
2018-Jun-12 13:58N 35°22' E 139°45'0 0.0
2018-Jun-12 13:28N 35°22' E 139°45'0 0.0
2018-Jun-12 12:58N 35°22' E 139°45'0 0.0
2018-Jun-12 12:28N 35°22' E 139°45'0 0.0
2018-Jun-12 11:58N 35°22' E 139°45'0 0.0
2018-Jun-12 11:28N 35°22' E 139°45'0 0.0
2018-Jun-12 10:58N 35°22' E 139°45'0 0.0
2018-Jun-12 10:28N 35°22' E 139°45'0 0.1
2018-Jun-12 09:58N 35°22' E 139°45'0 0.0
2018-Jun-12 09:25N 35°22' E 139°45'0 0.0
2018-Jun-12 08:58N 35°22' E 139°45'0 0.3
2018-Jun-12 08:29N 35°23' E 139°45'0 0.0
2018-Jun-12 08:00N 35°23' E 139°45'4 7.3
2018-Jun-12 07:30N 35°26' E 139°47'510.4
2018-Jun-12 07:00N 35°31' E 139°48'1 2.0
2018-Jun-12 06:30N 35°32' E 139°48'0 0.0
2018-Jun-12 06:00N 35°32' E 139°48'0 0.0
2018-Jun-12 05:30N 35°32' E 139°48'0 0.0
2018-Jun-12 05:01N 35°32' E 139°48'0 0.0
2018-Jun-12 04:30N 35°32' E 139°48'0 0.0
2018-Jun-12 04:01N 35°32' E 139°48'0 0.0
2018-Jun-12 03:30N 35°32' E 139°48'0 0.0
2018-Jun-12 03:00N 35°32' E 139°48'0 0.0
2018-Jun-12 02:30N 35°32' E 139°48'0 0.0
2018-Jun-12 01:59N 35°32' E 139°48'0 0.6
2018-Jun-12 01:30N 35°32' E 139°48'2 4.4
2018-Jun-12 00:59N 35°32' E 139°51'3 3.5
2018-Jun-12 00:07N 35°34' E 139°53'0 0.0
2018-Jun-12 00:00N 35°34' E 139°53'0 0.0
2018-Jun-11 23:30N 35°34' E 139°53'0 0.0
2018-Jun-11 22:30N 35°34' E 139°53'0 0.0
2018-Jun-11 21:59N 35°34' E 139°53'0 0.0
2018-Jun-11 21:08N 35°34' E 139°53'0 0.0
2018-Jun-11 21:01N 35°34' E 139°53'0 0.0
2018-Jun-11 17:52N 35°34' E 139°53'1 0.1
2018-Jun-11 11:08N 35°34' E 139°54'210.2
2018-Jun-11 10:57N 35°32' E 139°55'  
Track history (hours):
 
Tides and Currents Weather Stations Pressure Air Temp Water Temp Dewpoint Dewpoint Depression Visibility Wind Speed Wind Dir Waves Ship Positions

Aikou Maru

Last reported at 2018-Jun-19 06:16 UTC. Time now 2018-Jun-20 07:24 UTC.
Position N 35°31' E 139°55'.

Length 89 m; draft 5.6 m.

Type: Tanker. MMSI: 431003751.

Date/timePositionNaut miles runAvg speedWind from/ knotsBaromVisibWave heightAir tempDewpointWater temp
2018-Jun-19 06:16N 35°31' E 139°55'412.9
2018-Jun-19 05:58N 35°28' E 139°51'612.8
2018-Jun-19 05:30N 35°25' E 139°45'4 8.6
2018-Jun-19 05:00N 35°24' E 139°40'0 0.8
2018-Jun-19 04:31N 35°25' E 139°39'0 0.0
2018-Jun-19 04:00N 35°25' E 139°39'0 0.0
2018-Jun-19 03:30N 35°25' E 139°39'0 0.0
2018-Jun-19 02:58N 35°25' E 139°39'0 0.0
2018-Jun-19 02:30N 35°25' E 139°39'0 0.0
2018-Jun-19 02:01N 35°25' E 139°39'0 0.0
2018-Jun-19 01:30N 35°25' E 139°39'0 0.0
2018-Jun-19 01:00N 35°25' E 139°39'0 0.0
2018-Jun-19 00:30N 35°25' E 139°39'0 0.0
2018-Jun-19 00:00N 35°25' E 139°39'0 0.0
2018-Jun-18 23:30N 35°25' E 139°39'1 2.0
2018-Jun-18 23:01N 35°24' E 139°40'3 6.7
2018-Jun-18 22:31N 35°24' E 139°44'0 0.1
2018-Jun-18 22:00N 35°24' E 139°44'0 0.0
2018-Jun-18 21:30N 35°24' E 139°44'0 0.0
2018-Jun-18 21:01N 35°24' E 139°44'0 0.0
2018-Jun-18 20:30N 35°24' E 139°44'0 0.0
2018-Jun-18 20:01N 35°24' E 139°44'0 0.0
2018-Jun-18 19:30N 35°24' E 139°44'0 0.0
2018-Jun-18 19:01N 35°24' E 139°44'0 0.0
2018-Jun-18 18:30N 35°24' E 139°44'0 0.0
2018-Jun-18 18:00N 35°24' E 139°44'0 0.0
2018-Jun-18 17:31N 35°24' E 139°44'0 0.0
2018-Jun-18 17:00N 35°24' E 139°44'0 0.0
2018-Jun-18 16:30N 35°24' E 139°44'0 0.0
2018-Jun-18 16:01N 35°24' E 139°44'0 0.0
2018-Jun-18 15:31N 35°24' E 139°44'0 0.0
2018-Jun-18 15:01N 35°24' E 139°44'0 0.0
2018-Jun-18 14:31N 35°24' E 139°44'0 0.0
2018-Jun-18 14:01N 35°24' E 139°44'0 0.0
2018-Jun-18 13:31N 35°24' E 139°44'0 0.0
2018-Jun-18 13:01N 35°24' E 139°44'0 0.0
2018-Jun-18 12:30N 35°24' E 139°44'0 0.0
2018-Jun-18 12:00N 35°24' E 139°44'0 0.0
2018-Jun-18 11:30N 35°24' E 139°44'0 0.0
2018-Jun-18 11:00N 35°24' E 139°44'0 0.1
2018-Jun-18 10:30N 35°24' E 139°44'0 0.0
2018-Jun-18 10:00N 35°24' E 139°44'0 0.0
2018-Jun-18 09:29N 35°24' E 139°44'0 0.1
2018-Jun-18 09:01N 35°24' E 139°44'0 0.1
2018-Jun-18 08:30N 35°24' E 139°44'0 0.1
2018-Jun-18 08:00N 35°24' E 139°44'0 0.0
2018-Jun-18 07:30N 35°24' E 139°44'0 0.0
2018-Jun-18 07:00N 35°24' E 139°44'0 0.0
2018-Jun-18 06:30N 35°24' E 139°44'0 0.1
2018-Jun-18 06:01N 35°24' E 139°44'0 0.1
2018-Jun-18 05:30N 35°24' E 139°44'0 0.1
2018-Jun-18 05:00N 35°24' E 139°44'0 0.0
2018-Jun-18 04:31N 35°24' E 139°44'0 0.0
2018-Jun-18 04:01N 35°24' E 139°44'0 0.0
2018-Jun-18 03:30N 35°24' E 139°44'0 0.0
2018-Jun-18 03:01N 35°24' E 139°44'0 0.0
2018-Jun-18 02:30N 35°24' E 139°44'0 0.0
2018-Jun-18 02:00N 35°24' E 139°44'0 0.0
2018-Jun-18 01:30N 35°24' E 139°44'2 4.3
2018-Jun-18 01:00N 35°22' E 139°42'3 6.5
2018-Jun-18 00:30N 35°25' E 139°39'0 0.0
2018-Jun-18 00:00N 35°25' E 139°39'2 3.4
2018-Jun-17 23:30N 35°23' E 139°41'3 6.1
2018-Jun-17 23:00N 35°25' E 139°44'612.1
2018-Jun-17 22:30N 35°29' E 139°50'611.8
2018-Jun-17 22:00N 35°32' E 139°55'  
2018-Jun-15 06:16N 35°31' E 139°55'312.2
2018-Jun-15 06:01N 35°29' E 139°52'612.1
2018-Jun-15 05:30N 35°25' E 139°46'510.3
2018-Jun-15 05:00N 35°24' E 139°40'1 1.3
2018-Jun-15 04:29N 35°25' E 139°39'0 0.0
2018-Jun-15 04:01N 35°25' E 139°39'0 0.0
2018-Jun-15 03:29N 35°25' E 139°39'0 0.0
2018-Jun-15 03:01N 35°25' E 139°39'0 0.0
2018-Jun-15 02:30N 35°25' E 139°39'0 0.0
2018-Jun-15 02:01N 35°25' E 139°39'0 0.0
2018-Jun-15 01:29N 35°25' E 139°39'0 0.0
2018-Jun-15 01:00N 35°25' E 139°39'0 0.0
2018-Jun-15 00:30N 35°25' E 139°39'0 0.0
2018-Jun-15 00:01N 35°25' E 139°39'0 0.0
2018-Jun-14 23:30N 35°25' E 139°39'1 2.2
2018-Jun-14 23:00N 35°24' E 139°40'3 6.1
2018-Jun-14 22:29N 35°23' E 139°44'0 0.0
2018-Jun-14 21:59N 35°23' E 139°44'0 0.0
2018-Jun-14 21:29N 35°23' E 139°44'0 0.0
2018-Jun-14 20:59N 35°23' E 139°44'0 0.0
2018-Jun-14 20:29N 35°23' E 139°44'0 0.0
2018-Jun-14 19:59N 35°23' E 139°44'0 0.1
2018-Jun-14 19:29N 35°23' E 139°44'0 0.1
2018-Jun-14 18:53N 35°23' E 139°44'0 0.0
2018-Jun-14 18:29N 35°23' E 139°44'0 0.0
2018-Jun-14 17:59N 35°23' E 139°44'0 0.0
2018-Jun-14 17:29N 35°23' E 139°44'0 0.0
2018-Jun-14 16:59N 35°23' E 139°44'0 0.1
2018-Jun-14 16:26N 35°23' E 139°44'0 0.0
2018-Jun-14 15:56N 35°23' E 139°44'0 0.0
2018-Jun-14 15:29N 35°23' E 139°44'0 0.0
2018-Jun-14 14:59N 35°23' E 139°44'0 0.0
2018-Jun-14 14:29N 35°23' E 139°44'0 0.0
2018-Jun-14 13:59N 35°23' E 139°44'0 0.0
2018-Jun-14 13:29N 35°23' E 139°44'0 0.0
2018-Jun-14 12:59N 35°23' E 139°44'0 0.0
2018-Jun-14 12:29N 35°23' E 139°44'0 0.1
2018-Jun-14 11:59N 35°23' E 139°44'0 0.1
2018-Jun-14 11:29N 35°23' E 139°44'0 0.0
2018-Jun-14 10:59N 35°23' E 139°44'0 0.0
2018-Jun-14 10:26N 35°23' E 139°44'0 0.1
2018-Jun-14 09:59N 35°23' E 139°44'0 0.0
2018-Jun-14 09:29N 35°23' E 139°44'0 0.1
2018-Jun-14 09:00N 35°23' E 139°44'2 4.7
2018-Jun-14 08:29N 35°25' E 139°46'511.2
2018-Jun-14 08:00N 35°30' E 139°49'2 3.8
2018-Jun-14 07:29N 35°32' E 139°48'0 0.0
2018-Jun-14 07:00N 35°32' E 139°48'0 0.0
2018-Jun-14 06:30N 35°32' E 139°48'0 0.0
2018-Jun-14 06:00N 35°32' E 139°48'0 0.0
2018-Jun-14 05:30N 35°32' E 139°48'0 0.0
2018-Jun-14 05:00N 35°32' E 139°48'0 0.0
2018-Jun-14 04:30N 35°32' E 139°48'0 0.0
2018-Jun-14 04:00N 35°32' E 139°48'1 1.7
2018-Jun-14 03:30N 35°31' E 139°48'2 3.9
2018-Jun-14 03:00N 35°31' E 139°50'0 0.0
2018-Jun-14 02:00N 35°31' E 139°50'0 0.0
2018-Jun-14 00:29N 35°31' E 139°50'0 0.0
2018-Jun-14 00:00N 35°31' E 139°50'0 0.0
2018-Jun-13 23:30N 35°31' E 139°50'0 0.0
2018-Jun-13 23:00N 35°31' E 139°50'0 0.0
2018-Jun-13 22:30N 35°31' E 139°50'0 0.0
2018-Jun-13 21:59N 35°31' E 139°50'0 0.0
2018-Jun-13 21:27N 35°31' E 139°50'0 0.0
2018-Jun-13 21:00N 35°31' E 139°50'0 0.0
2018-Jun-13 20:30N 35°31' E 139°50'0 0.0
2018-Jun-13 20:00N 35°31' E 139°50'0 0.1
2018-Jun-13 18:29N 35°31' E 139°50'0 0.1
2018-Jun-13 18:00N 35°31' E 139°50'0 0.0
2018-Jun-13 17:30N 35°31' E 139°50'0 0.0
2018-Jun-13 16:59N 35°31' E 139°50'0 0.0
2018-Jun-13 16:30N 35°31' E 139°50'0 0.0
2018-Jun-13 16:00N 35°31' E 139°50'0 0.0
2018-Jun-13 15:30N 35°31' E 139°50'0 0.0
2018-Jun-13 15:00N 35°31' E 139°50'0 0.0
2018-Jun-13 14:30N 35°31' E 139°50'0 0.0
2018-Jun-13 13:50N 35°31' E 139°50'0 0.0
2018-Jun-13 13:24N 35°31' E 139°50'0 0.0
2018-Jun-13 13:00N 35°31' E 139°50'0 0.0
2018-Jun-13 12:25N 35°31' E 139°50'0 0.0
2018-Jun-13 12:00N 35°31' E 139°50'0 0.0
2018-Jun-13 11:29N 35°31' E 139°50'0 0.0
2018-Jun-13 11:00N 35°31' E 139°50'0 0.0
2018-Jun-13 10:30N 35°31' E 139°50'0 0.0
2018-Jun-13 09:56N 35°31' E 139°50'0 0.0
2018-Jun-13 09:30N 35°31' E 139°50'0 0.0
2018-Jun-13 09:00N 35°31' E 139°50'0 0.0
2018-Jun-13 08:30N 35°31' E 139°50'0 0.0
2018-Jun-13 08:00N 35°31' E 139°50'0 0.1
2018-Jun-13 07:30N 35°31' E 139°50'0 0.0
2018-Jun-13 07:00N 35°31' E 139°50'1 2.0
2018-Jun-13 06:30N 35°30' E 139°49'612.1
2018-Jun-13 06:00N 35°26' E 139°44'4 8.7
2018-Jun-13 05:30N 35°24' E 139°40'0 0.8
2018-Jun-13 05:00N 35°25' E 139°39'0 0.0
2018-Jun-13 04:30N 35°25' E 139°39'0 0.0
2018-Jun-13 04:00N 35°25' E 139°39'0 0.0
2018-Jun-13 03:29N 35°25' E 139°39'0 0.0
2018-Jun-13 03:00N 35°25' E 139°39'0 0.0
2018-Jun-13 02:30N 35°25' E 139°39'0 0.0
2018-Jun-13 02:00N 35°25' E 139°39'0 0.0
2018-Jun-13 01:30N 35°25' E 139°39'0 0.0
2018-Jun-13 01:00N 35°25' E 139°39'0 0.0
2018-Jun-13 00:30N 35°25' E 139°39'0 0.0
2018-Jun-13 00:00N 35°25' E 139°39'0 0.6
2018-Jun-12 23:30N 35°24' E 139°39'4 7.6
2018-Jun-12 23:00N 35°23' E 139°44'1 1.6
2018-Jun-12 22:30N 35°22' E 139°45'0 0.0
2018-Jun-12 21:58N 35°22' E 139°45'0 0.0
2018-Jun-12 21:28N 35°22' E 139°45'0 0.0
2018-Jun-12 20:58N 35°22' E 139°45'0 0.0
2018-Jun-12 20:28N 35°22' E 139°45'0 0.0
2018-Jun-12 19:58N 35°22' E 139°45'0 0.0
2018-Jun-12 19:28N 35°22' E 139°45'0 0.0
2018-Jun-12 18:58N 35°22' E 139°45'0 0.0
2018-Jun-12 18:28N 35°22' E 139°45'0 0.0
2018-Jun-12 17:58N 35°22' E 139°45'0 0.0
2018-Jun-12 17:28N 35°22' E 139°45'0 0.0
2018-Jun-12 16:58N 35°22' E 139°45'0 0.0
2018-Jun-12 16:28N 35°22' E 139°45'0 0.0
2018-Jun-12 15:58N 35°22' E 139°45'0 0.0
2018-Jun-12 15:28N 35°22' E 139°45'0 0.0
2018-Jun-12 14:58N 35°22' E 139°45'0 0.0
2018-Jun-12 14:25N 35°22' E 139°45'0 0.0
2018-Jun-12 13:58N 35°22' E 139°45'0 0.0
2018-Jun-12 13:28N 35°22' E 139°45'0 0.0
2018-Jun-12 12:58N 35°22' E 139°45'0 0.0
2018-Jun-12 12:28N 35°22' E 139°45'0 0.0
2018-Jun-12 11:58N 35°22' E 139°45'0 0.0
2018-Jun-12 11:28N 35°22' E 139°45'0 0.0
2018-Jun-12 10:58N 35°22' E 139°45'0 0.0
2018-Jun-12 10:28N 35°22' E 139°45'0 0.1
2018-Jun-12 09:58N 35°22' E 139°45'0 0.0
2018-Jun-12 09:25N 35°22' E 139°45'0 0.0
2018-Jun-12 08:58N 35°22' E 139°45'0 0.3
2018-Jun-12 08:29N 35°23' E 139°45'0 0.0
2018-Jun-12 08:00N 35°23' E 139°45'4 7.3
2018-Jun-12 07:30N 35°26' E 139°47'510.4
2018-Jun-12 07:00N 35°31' E 139°48'1 2.0
2018-Jun-12 06:30N 35°32' E 139°48'0 0.0
2018-Jun-12 06:00N 35°32' E 139°48'0 0.0
2018-Jun-12 05:30N 35°32' E 139°48'0 0.0
2018-Jun-12 05:01N 35°32' E 139°48'0 0.0
2018-Jun-12 04:30N 35°32' E 139°48'0 0.0
2018-Jun-12 04:01N 35°32' E 139°48'0 0.0
2018-Jun-12 03:30N 35°32' E 139°48'0 0.0
2018-Jun-12 03:00N 35°32' E 139°48'0 0.0
2018-Jun-12 02:30N 35°32' E 139°48'0 0.0
2018-Jun-12 01:59N 35°32' E 139°48'0 0.6
2018-Jun-12 01:30N 35°32' E 139°48'2 4.4
2018-Jun-12 00:59N 35°32' E 139°51'3 3.5
2018-Jun-12 00:07N 35°34' E 139°53'0 0.0
2018-Jun-12 00:00N 35°34' E 139°53'0 0.0
2018-Jun-11 23:30N 35°34' E 139°53'0 0.0
2018-Jun-11 22:30N 35°34' E 139°53'0 0.0
2018-Jun-11 21:59N 35°34' E 139°53'0 0.0
2018-Jun-11 21:08N 35°34' E 139°53'0 0.0
2018-Jun-11 21:01N 35°34' E 139°53'0 0.0
2018-Jun-11 17:52N 35°34' E 139°53'1 0.1
2018-Jun-11 11:08N 35°34' E 139°54'210.2
2018-Jun-11 10:57N 35°32' E 139°55'  

Dump ship's entire track history